sensor_id;sensor_type;location;lat;lon;timestamp;P1;durP1;ratioP1;P2;durP2;ratioP2
79220;SDS011;72175;52.118;5.406;2023-09-12T00:00:27;7.32;;;4.10;;
79220;SDS011;72175;52.118;5.406;2023-09-12T00:02:53;7.43;;;3.80;;
79220;SDS011;72175;52.118;5.406;2023-09-12T00:05:20;8.02;;;3.50;;
79220;SDS011;72175;52.118;5.406;2023-09-12T00:07:46;8.07;;;4.85;;
79220;SDS011;72175;52.118;5.406;2023-09-12T00:10:13;7.32;;;3.45;;
79220;SDS011;72175;52.118;5.406;2023-09-12T00:12:39;7.60;;;3.90;;
79220;SDS011;72175;52.118;5.406;2023-09-12T00:15:06;8.05;;;3.83;;
79220;SDS011;72175;52.118;5.406;2023-09-12T00:17:33;8.25;;;4.47;;
79220;SDS011;72175;52.118;5.406;2023-09-12T00:20:00;7.35;;;3.55;;
79220;SDS011;72175;52.118;5.406;2023-09-12T00:22:26;7.28;;;3.50;;
79220;SDS011;72175;52.118;5.406;2023-09-12T00:24:53;8.65;;;3.95;;
79220;SDS011;72175;52.118;5.406;2023-09-12T00:27:19;8.18;;;4.57;;
79220;SDS011;72175;52.118;5.406;2023-09-12T00:29:46;7.35;;;4.05;;
79220;SDS011;72175;52.118;5.406;2023-09-12T00:32:12;7.20;;;3.67;;
79220;SDS011;72175;52.118;5.406;2023-09-12T00:34:39;7.82;;;4.00;;
79220;SDS011;72175;52.118;5.406;2023-09-12T00:37:05;7.15;;;3.70;;
79220;SDS011;72175;52.118;5.406;2023-09-12T00:39:32;7.75;;;3.63;;
79220;SDS011;72175;52.118;5.406;2023-09-12T00:41:58;7.22;;;3.90;;
79220;SDS011;72175;52.118;5.406;2023-09-12T00:44:25;8.15;;;3.67;;
79220;SDS011;72175;52.118;5.406;2023-09-12T00:46:51;6.78;;;3.72;;
79220;SDS011;72175;52.118;5.406;2023-09-12T00:49:20;7.30;;;3.60;;
79220;SDS011;72175;52.118;5.406;2023-09-12T00:51:48;7.13;;;3.45;;
79220;SDS011;72175;52.118;5.406;2023-09-12T00:54:16;7.10;;;3.53;;
79220;SDS011;72175;52.118;5.406;2023-09-12T00:56:43;6.93;;;3.45;;
79220;SDS011;72175;52.118;5.406;2023-09-12T00:59:10;6.45;;;3.42;;
79220;SDS011;72175;52.118;5.406;2023-09-12T01:01:37;7.60;;;3.50;;
79220;SDS011;72175;52.118;5.406;2023-09-12T01:04:04;7.95;;;3.58;;
79220;SDS011;72175;52.118;5.406;2023-09-12T01:06:33;6.38;;;3.38;;
79220;SDS011;72175;52.118;5.406;2023-09-12T01:09:00;8.02;;;3.42;;
79220;SDS011;72175;52.118;5.406;2023-09-12T01:11:27;6.72;;;3.65;;
79220;SDS011;72175;52.118;5.406;2023-09-12T01:13:55;7.40;;;3.67;;
79220;SDS011;72175;52.118;5.406;2023-09-12T01:16:22;6.38;;;3.47;;
79220;SDS011;72175;52.118;5.406;2023-09-12T01:18:49;7.15;;;3.25;;
79220;SDS011;72175;52.118;5.406;2023-09-12T01:21:31;7.57;;;3.72;;
79220;SDS011;72175;52.118;5.406;2023-09-12T01:29:34;6.85;;;3.40;;
79220;SDS011;72175;52.118;5.406;2023-09-12T01:32:01;6.45;;;3.15;;
79220;SDS011;72175;52.118;5.406;2023-09-12T01:34:29;6.93;;;3.20;;
79220;SDS011;72175;52.118;5.406;2023-09-12T01:36:56;6.60;;;3.28;;
79220;SDS011;72175;52.118;5.406;2023-09-12T01:39:23;7.53;;;3.42;;
79220;SDS011;72175;52.118;5.406;2023-09-12T01:41:49;6.53;;;3.42;;
79220;SDS011;72175;52.118;5.406;2023-09-12T01:44:20;6.65;;;2.97;;
79220;SDS011;72175;52.118;5.406;2023-09-12T01:46:51;6.80;;;3.28;;
79220;SDS011;72175;52.118;5.406;2023-09-12T01:49:19;7.55;;;3.08;;
79220;SDS011;72175;52.118;5.406;2023-09-12T01:51:48;5.90;;;2.80;;
79220;SDS011;72175;52.118;5.406;2023-09-12T01:54:16;7.15;;;3.22;;
79220;SDS011;72175;52.118;5.406;2023-09-12T01:56:43;6.65;;;3.40;;
79220;SDS011;72175;52.118;5.406;2023-09-12T01:59:10;5.65;;;3.03;;
79220;SDS011;72175;52.118;5.406;2023-09-12T02:01:37;6.63;;;3.08;;
79220;SDS011;72175;52.118;5.406;2023-09-12T02:04:05;6.35;;;3.10;;
79220;SDS011;72175;52.118;5.406;2023-09-12T02:06:35;6.53;;;3.67;;
79220;SDS011;72175;52.118;5.406;2023-09-12T02:09:01;7.43;;;3.33;;
79220;SDS011;72175;52.118;5.406;2023-09-12T02:11:29;6.57;;;2.78;;
79220;SDS011;72175;52.118;5.406;2023-09-12T02:13:56;7.85;;;3.55;;
79220;SDS011;72175;52.118;5.406;2023-09-12T02:16:22;5.93;;;2.80;;
79220;SDS011;72175;52.118;5.406;2023-09-12T02:18:49;5.80;;;2.63;;
79220;SDS011;72175;52.118;5.406;2023-09-12T02:21:15;5.82;;;2.55;;
79220;SDS011;72175;52.118;5.406;2023-09-12T02:23:42;7.38;;;3.13;;
79220;SDS011;72175;52.118;5.406;2023-09-12T02:26:08;5.47;;;2.40;;
79220;SDS011;72175;52.118;5.406;2023-09-12T02:28:35;6.13;;;2.72;;
79220;SDS011;72175;52.118;5.406;2023-09-12T02:31:01;6.40;;;3.00;;
79220;SDS011;72175;52.118;5.406;2023-09-12T02:33:28;6.07;;;2.75;;
79220;SDS011;72175;52.118;5.406;2023-09-12T02:35:55;5.50;;;2.80;;
79220;SDS011;72175;52.118;5.406;2023-09-12T02:38:21;6.43;;;3.70;;
79220;SDS011;72175;52.118;5.406;2023-09-12T02:40:48;6.25;;;3.00;;
79220;SDS011;72175;52.118;5.406;2023-09-12T02:43:15;6.97;;;3.28;;
79220;SDS011;72175;52.118;5.406;2023-09-12T02:45:41;5.85;;;2.53;;
79220;SDS011;72175;52.118;5.406;2023-09-12T02:48:08;5.85;;;3.03;;
79220;SDS011;72175;52.118;5.406;2023-09-12T02:50:35;5.55;;;2.67;;
79220;SDS011;72175;52.118;5.406;2023-09-12T02:53:02;5.38;;;2.58;;
79220;SDS011;72175;52.118;5.406;2023-09-12T02:55:28;5.45;;;2.47;;
79220;SDS011;72175;52.118;5.406;2023-09-12T02:57:56;5.82;;;3.30;;
79220;SDS011;72175;52.118;5.406;2023-09-12T03:00:23;5.53;;;2.20;;
79220;SDS011;72175;52.118;5.406;2023-09-12T03:02:49;6.07;;;2.75;;
79220;SDS011;72175;52.118;5.406;2023-09-12T03:05:16;5.28;;;2.63;;
79220;SDS011;72175;52.118;5.406;2023-09-12T03:07:42;5.53;;;2.60;;
79220;SDS011;72175;52.118;5.406;2023-09-12T03:10:09;5.65;;;2.55;;
79220;SDS011;72175;52.118;5.406;2023-09-12T03:12:36;5.07;;;2.50;;
79220;SDS011;72175;52.118;5.406;2023-09-12T03:15:03;5.20;;;2.58;;
79220;SDS011;72175;52.118;5.406;2023-09-12T03:17:33;5.15;;;2.30;;
79220;SDS011;72175;52.118;5.406;2023-09-12T03:20:00;5.55;;;2.80;;
79220;SDS011;72175;52.118;5.406;2023-09-12T03:22:27;5.63;;;2.58;;
79220;SDS011;72175;52.118;5.406;2023-09-12T03:24:53;4.55;;;2.20;;
79220;SDS011;72175;52.118;5.406;2023-09-12T03:27:20;5.05;;;2.40;;
79220;SDS011;72175;52.118;5.406;2023-09-12T03:29:47;5.47;;;2.20;;
79220;SDS011;72175;52.118;5.406;2023-09-12T03:32:14;5.88;;;2.15;;
79220;SDS011;72175;52.118;5.406;2023-09-12T03:34:40;4.97;;;3.15;;
79220;SDS011;72175;52.118;5.406;2023-09-12T03:37:06;4.95;;;1.92;;
79220;SDS011;72175;52.118;5.406;2023-09-12T03:39:34;5.07;;;2.50;;
79220;SDS011;72175;52.118;5.406;2023-09-12T03:42:01;5.10;;;1.85;;
79220;SDS011;72175;52.118;5.406;2023-09-12T03:44:27;5.10;;;2.45;;
79220;SDS011;72175;52.118;5.406;2023-09-12T03:46:54;5.15;;;2.38;;
79220;SDS011;72175;52.118;5.406;2023-09-12T03:49:20;4.30;;;1.98;;
79220;SDS011;72175;52.118;5.406;2023-09-12T03:51:47;5.60;;;2.10;;
79220;SDS011;72175;52.118;5.406;2023-09-12T03:54:13;4.57;;;2.40;;
79220;SDS011;72175;52.118;5.406;2023-09-12T03:56:40;5.00;;;1.92;;
79220;SDS011;72175;52.118;5.406;2023-09-12T03:59:10;5.78;;;2.13;;
79220;SDS011;72175;52.118;5.406;2023-09-12T04:01:39;4.82;;;2.00;;
79220;SDS011;72175;52.118;5.406;2023-09-12T04:04:06;4.45;;;1.73;;
79220;SDS011;72175;52.118;5.406;2023-09-12T04:06:34;4.20;;;1.63;;
79220;SDS011;72175;52.118;5.406;2023-09-12T04:09:01;4.40;;;1.80;;
79220;SDS011;72175;52.118;5.406;2023-09-12T04:11:28;4.53;;;2.05;;
79220;SDS011;72175;52.118;5.406;2023-09-12T04:14:12;4.70;;;1.88;;
79220;SDS011;72175;52.118;5.406;2023-09-12T04:16:41;4.22;;;1.67;;
79220;SDS011;72175;52.118;5.406;2023-09-12T04:19:07;4.57;;;1.55;;
79220;SDS011;72175;52.118;5.406;2023-09-12T04:21:34;4.20;;;1.80;;
79220;SDS011;72175;52.118;5.406;2023-09-12T04:24:02;4.90;;;2.40;;
79220;SDS011;72175;52.118;5.406;2023-09-12T04:26:29;4.50;;;1.80;;
79220;SDS011;72175;52.118;5.406;2023-09-12T04:28:55;4.75;;;1.92;;
79220;SDS011;72175;52.118;5.406;2023-09-12T04:31:23;4.60;;;2.00;;
79220;SDS011;72175;52.118;5.406;2023-09-12T04:33:51;4.43;;;1.90;;
79220;SDS011;72175;52.118;5.406;2023-09-12T04:36:18;4.55;;;1.83;;
79220;SDS011;72175;52.118;5.406;2023-09-12T04:38:45;4.35;;;1.88;;
79220;SDS011;72175;52.118;5.406;2023-09-12T04:41:12;4.35;;;1.73;;
79220;SDS011;72175;52.118;5.406;2023-09-12T04:43:43;4.00;;;1.77;;
79220;SDS011;72175;52.118;5.406;2023-09-12T04:46:13;4.47;;;1.90;;
79220;SDS011;72175;52.118;5.406;2023-09-12T04:48:39;4.28;;;1.70;;
79220;SDS011;72175;52.118;5.406;2023-09-12T04:51:09;4.32;;;2.22;;
79220;SDS011;72175;52.118;5.406;2023-09-12T04:53:35;5.97;;;1.67;;
79220;SDS011;72175;52.118;5.406;2023-09-12T04:56:02;5.30;;;2.00;;
79220;SDS011;72175;52.118;5.406;2023-09-12T04:58:30;4.65;;;1.67;;
79220;SDS011;72175;52.118;5.406;2023-09-12T05:00:57;4.63;;;2.20;;
79220;SDS011;72175;52.118;5.406;2023-09-12T05:03:23;4.72;;;2.08;;
79220;SDS011;72175;52.118;5.406;2023-09-12T05:05:52;5.00;;;2.10;;
79220;SDS011;72175;52.118;5.406;2023-09-12T05:08:19;4.78;;;2.00;;
79220;SDS011;72175;52.118;5.406;2023-09-12T05:10:46;5.00;;;1.85;;
79220;SDS011;72175;52.118;5.406;2023-09-12T05:13:13;4.28;;;1.77;;
79220;SDS011;72175;52.118;5.406;2023-09-12T05:15:40;4.60;;;2.22;;
79220;SDS011;72175;52.118;5.406;2023-09-12T05:18:07;4.28;;;1.95;;
79220;SDS011;72175;52.118;5.406;2023-09-12T05:20:35;4.38;;;2.50;;
79220;SDS011;72175;52.118;5.406;2023-09-12T05:23:02;5.00;;;1.98;;
79220;SDS011;72175;52.118;5.406;2023-09-12T05:25:28;4.75;;;1.60;;
79220;SDS011;72175;52.118;5.406;2023-09-12T05:27:56;4.38;;;1.70;;
79220;SDS011;72175;52.118;5.406;2023-09-12T05:30:22;4.18;;;1.52;;
79220;SDS011;72175;52.118;5.406;2023-09-12T05:32:49;4.38;;;1.60;;
79220;SDS011;72175;52.118;5.406;2023-09-12T05:35:16;5.10;;;2.13;;
79220;SDS011;72175;52.118;5.406;2023-09-12T05:40:14;4.28;;;1.52;;
79220;SDS011;72175;52.118;5.406;2023-09-12T05:42:40;3.88;;;1.63;;
79220;SDS011;72175;52.118;5.406;2023-09-12T05:45:07;3.92;;;1.20;;
79220;SDS011;72175;52.118;5.406;2023-09-12T05:47:34;4.07;;;1.65;;
79220;SDS011;72175;52.118;5.406;2023-09-12T05:50:00;3.92;;;1.50;;
79220;SDS011;72175;52.118;5.406;2023-09-12T05:52:27;4.03;;;1.52;;
79220;SDS011;72175;52.118;5.406;2023-09-12T05:54:53;3.63;;;1.35;;
79220;SDS011;72175;52.118;5.406;2023-09-12T05:57:20;4.97;;;1.77;;
79220;SDS011;72175;52.118;5.406;2023-09-12T05:59:47;4.55;;;1.63;;
79220;SDS011;72175;52.118;5.406;2023-09-12T06:02:14;4.50;;;1.73;;
79220;SDS011;72175;52.118;5.406;2023-09-12T06:04:40;4.60;;;1.55;;
79220;SDS011;72175;52.118;5.406;2023-09-12T06:07:07;4.55;;;1.60;;
79220;SDS011;72175;52.118;5.406;2023-09-12T06:09:33;5.00;;;1.70;;
79220;SDS011;72175;52.118;5.406;2023-09-12T06:12:00;4.88;;;1.75;;
79220;SDS011;72175;52.118;5.406;2023-09-12T06:14:27;5.45;;;2.20;;
79220;SDS011;72175;52.118;5.406;2023-09-12T06:16:55;4.85;;;1.73;;
79220;SDS011;72175;52.118;5.406;2023-09-12T06:19:22;5.57;;;3.03;;
79220;SDS011;72175;52.118;5.406;2023-09-12T06:21:49;7.75;;;3.00;;
79220;SDS011;72175;52.118;5.406;2023-09-12T06:24:16;4.88;;;2.08;;
79220;SDS011;72175;52.118;5.406;2023-09-12T06:26:47;5.80;;;2.28;;
79220;SDS011;72175;52.118;5.406;2023-09-12T06:29:14;5.38;;;1.70;;
79220;SDS011;72175;52.118;5.406;2023-09-12T06:31:40;6.07;;;2.50;;
79220;SDS011;72175;52.118;5.406;2023-09-12T06:34:08;5.63;;;1.95;;
79220;SDS011;72175;52.118;5.406;2023-09-12T06:36:34;7.60;;;1.83;;
79220;SDS011;72175;52.118;5.406;2023-09-12T06:39:01;5.38;;;2.03;;
79220;SDS011;72175;52.118;5.406;2023-09-12T06:41:31;8.07;;;2.25;;
79220;SDS011;72175;52.118;5.406;2023-09-12T06:43:58;8.07;;;2.55;;
79220;SDS011;72175;52.118;5.406;2023-09-12T06:46:25;6.85;;;2.30;;
79220;SDS011;72175;52.118;5.406;2023-09-12T06:48:52;5.68;;;1.95;;
79220;SDS011;72175;52.118;5.406;2023-09-12T06:51:22;5.93;;;2.67;;
79220;SDS011;72175;52.118;5.406;2023-09-12T06:53:55;6.90;;;3.28;;
79220;SDS011;72175;52.118;5.406;2023-09-12T06:56:21;7.65;;;2.80;;
79220;SDS011;72175;52.118;5.406;2023-09-12T06:58:48;5.75;;;2.58;;
79220;SDS011;72175;52.118;5.406;2023-09-12T07:01:14;7.63;;;2.70;;
79220;SDS011;72175;52.118;5.406;2023-09-12T07:03:41;8.70;;;3.20;;
79220;SDS011;72175;52.118;5.406;2023-09-12T07:06:08;10.40;;;4.95;;
79220;SDS011;72175;52.118;5.406;2023-09-12T07:08:35;13.60;;;4.35;;
79220;SDS011;72175;52.118;5.406;2023-09-12T07:11:02;9.07;;;3.10;;
79220;SDS011;72175;52.118;5.406;2023-09-12T07:13:32;11.27;;;4.28;;
79220;SDS011;72175;52.118;5.406;2023-09-12T07:15:59;9.52;;;3.67;;
79220;SDS011;72175;52.118;5.406;2023-09-12T07:18:26;10.30;;;3.60;;
79220;SDS011;72175;52.118;5.406;2023-09-12T07:20:56;13.30;;;4.07;;
79220;SDS011;72175;52.118;5.406;2023-09-12T07:23:23;11.13;;;3.95;;
79220;SDS011;72175;52.118;5.406;2023-09-12T07:25:50;12.82;;;4.20;;
79220;SDS011;72175;52.118;5.406;2023-09-12T07:28:16;11.95;;;4.00;;
79220;SDS011;72175;52.118;5.406;2023-09-12T07:30:47;10.85;;;4.63;;
79220;SDS011;72175;52.118;5.406;2023-09-12T07:33:14;11.32;;;3.72;;
79220;SDS011;72175;52.118;5.406;2023-09-12T07:35:41;11.68;;;4.60;;
79220;SDS011;72175;52.118;5.406;2023-09-12T07:38:07;15.23;;;4.60;;
79220;SDS011;72175;52.118;5.406;2023-09-12T07:40:34;14.02;;;5.18;;
79220;SDS011;72175;52.118;5.406;2023-09-12T07:43:01;10.20;;;4.65;;
79220;SDS011;72175;52.118;5.406;2023-09-12T07:45:28;14.98;;;4.60;;
79220;SDS011;72175;52.118;5.406;2023-09-12T07:47:57;9.88;;;3.78;;
79220;SDS011;72175;52.118;5.406;2023-09-12T07:50:24;8.55;;;3.45;;
79220;SDS011;72175;52.118;5.406;2023-09-12T07:52:50;12.40;;;3.83;;
79220;SDS011;72175;52.118;5.406;2023-09-12T07:55:17;10.02;;;4.10;;
79220;SDS011;72175;52.118;5.406;2023-09-12T07:57:43;10.20;;;3.70;;
79220;SDS011;72175;52.118;5.406;2023-09-12T08:00:10;9.60;;;3.80;;
79220;SDS011;72175;52.118;5.406;2023-09-12T08:02:38;11.68;;;4.30;;
79220;SDS011;72175;52.118;5.406;2023-09-12T08:05:05;9.48;;;3.83;;
79220;SDS011;72175;52.118;5.406;2023-09-12T08:07:33;11.38;;;3.88;;
79220;SDS011;72175;52.118;5.406;2023-09-12T08:09:59;10.30;;;4.40;;
79220;SDS011;72175;52.118;5.406;2023-09-12T08:12:27;10.30;;;4.40;;
79220;SDS011;72175;52.118;5.406;2023-09-12T08:14:54;12.65;;;4.75;;
79220;SDS011;72175;52.118;5.406;2023-09-12T08:17:22;10.00;;;4.18;;
79220;SDS011;72175;52.118;5.406;2023-09-12T08:19:48;8.98;;;3.80;;
79220;SDS011;72175;52.118;5.406;2023-09-12T08:22:16;8.75;;;3.75;;
79220;SDS011;72175;52.118;5.406;2023-09-12T08:24:43;13.48;;;3.50;;
79220;SDS011;72175;52.118;5.406;2023-09-12T08:27:09;6.93;;;2.95;;
79220;SDS011;72175;52.118;5.406;2023-09-12T08:29:36;7.78;;;3.50;;
79220;SDS011;72175;52.118;5.406;2023-09-12T08:32:03;10.38;;;3.25;;
79220;SDS011;72175;52.118;5.406;2023-09-12T08:34:30;8.68;;;3.55;;
79220;SDS011;72175;52.118;5.406;2023-09-12T08:36:56;10.65;;;3.75;;
79220;SDS011;72175;52.118;5.406;2023-09-12T08:39:23;8.93;;;3.97;;
79220;SDS011;72175;52.118;5.406;2023-09-12T08:41:52;8.75;;;3.92;;
79220;SDS011;72175;52.118;5.406;2023-09-12T08:44:19;9.15;;;4.35;;
79220;SDS011;72175;52.118;5.406;2023-09-12T08:46:47;8.45;;;3.65;;
79220;SDS011;72175;52.118;5.406;2023-09-12T08:49:13;9.48;;;4.10;;
79220;SDS011;72175;52.118;5.406;2023-09-12T08:51:41;9.32;;;3.70;;
79220;SDS011;72175;52.118;5.406;2023-09-12T08:54:08;8.93;;;3.75;;
79220;SDS011;72175;52.118;5.406;2023-09-12T08:56:39;10.88;;;3.80;;
79220;SDS011;72175;52.118;5.406;2023-09-12T08:59:07;10.63;;;4.15;;
79220;SDS011;72175;52.118;5.406;2023-09-12T09:01:36;10.80;;;3.42;;
79220;SDS011;72175;52.118;5.406;2023-09-12T09:04:03;12.68;;;3.88;;
79220;SDS011;72175;52.118;5.406;2023-09-12T09:06:31;10.50;;;3.55;;
79220;SDS011;72175;52.118;5.406;2023-09-12T09:09:01;12.23;;;4.03;;
79220;SDS011;72175;52.118;5.406;2023-09-12T09:11:29;10.23;;;4.50;;
79220;SDS011;72175;52.118;5.406;2023-09-12T09:13:56;11.18;;;3.83;;
79220;SDS011;72175;52.118;5.406;2023-09-12T09:16:23;9.50;;;4.18;;
79220;SDS011;72175;52.118;5.406;2023-09-12T09:18:57;9.65;;;4.22;;
79220;SDS011;72175;52.118;5.406;2023-09-12T09:21:27;12.57;;;4.10;;
79220;SDS011;72175;52.118;5.406;2023-09-12T09:24:04;16.02;;;4.50;;
79220;SDS011;72175;52.118;5.406;2023-09-12T09:26:49;11.65;;;4.13;;
79220;SDS011;72175;52.118;5.406;2023-09-12T09:29:19;11.85;;;4.72;;
79220;SDS011;72175;52.118;5.406;2023-09-12T09:31:50;10.13;;;4.05;;
79220;SDS011;72175;52.118;5.406;2023-09-12T09:34:18;12.55;;;4.95;;
79220;SDS011;72175;52.118;5.406;2023-09-12T09:36:49;11.07;;;4.57;;
79220;SDS011;72175;52.118;5.406;2023-09-12T09:39:19;14.43;;;5.32;;
79220;SDS011;72175;52.118;5.406;2023-09-12T09:41:47;9.30;;;4.15;;
79220;SDS011;72175;52.118;5.406;2023-09-12T09:44:15;10.15;;;4.55;;
79220;SDS011;72175;52.118;5.406;2023-09-12T09:46:45;11.93;;;4.97;;
79220;SDS011;72175;52.118;5.406;2023-09-12T09:49:16;11.05;;;4.25;;
79220;SDS011;72175;52.118;5.406;2023-09-12T09:51:45;10.55;;;4.60;;
79220;SDS011;72175;52.118;5.406;2023-09-12T09:54:12;9.57;;;4.05;;
79220;SDS011;72175;52.118;5.406;2023-09-12T09:56:50;11.20;;;4.95;;
79220;SDS011;72175;52.118;5.406;2023-09-12T09:59:22;9.85;;;4.57;;
79220;SDS011;72175;52.118;5.406;2023-09-12T10:01:50;10.75;;;5.25;;
79220;SDS011;72175;52.118;5.406;2023-09-12T10:04:20;10.55;;;5.03;;
79220;SDS011;72175;52.118;5.406;2023-09-12T10:06:49;9.18;;;4.20;;
79220;SDS011;72175;52.118;5.406;2023-09-12T10:09:16;9.65;;;4.50;;
79220;SDS011;72175;52.118;5.406;2023-09-12T10:11:43;9.40;;;4.30;;
79220;SDS011;72175;52.118;5.406;2023-09-12T10:14:12;9.65;;;5.10;;
79220;SDS011;72175;52.118;5.406;2023-09-12T10:16:45;11.18;;;4.22;;
79220;SDS011;72175;52.118;5.406;2023-09-12T10:24:18;12.57;;;4.63;;
79220;SDS011;72175;52.118;5.406;2023-09-12T10:26:48;8.48;;;4.05;;
79220;SDS011;72175;52.118;5.406;2023-09-12T10:29:16;10.90;;;4.53;;
79220;SDS011;72175;52.118;5.406;2023-09-12T10:31:43;9.65;;;4.45;;
79220;SDS011;72175;52.118;5.406;2023-09-12T10:34:10;9.73;;;4.63;;
79220;SDS011;72175;52.118;5.406;2023-09-12T10:36:42;10.60;;;4.43;;
79220;SDS011;72175;52.118;5.406;2023-09-12T10:39:10;7.88;;;3.70;;
79220;SDS011;72175;52.118;5.406;2023-09-12T10:41:38;12.15;;;4.50;;
79220;SDS011;72175;52.118;5.406;2023-09-12T10:44:06;8.60;;;4.30;;
79220;SDS011;72175;52.118;5.406;2023-09-12T10:46:39;7.40;;;3.28;;
79220;SDS011;72175;52.118;5.406;2023-09-12T10:49:07;10.30;;;3.83;;
79220;SDS011;72175;52.118;5.406;2023-09-12T10:51:37;9.85;;;4.10;;
79220;SDS011;72175;52.118;5.406;2023-09-12T10:54:06;9.43;;;4.80;;
79220;SDS011;72175;52.118;5.406;2023-09-12T10:56:36;9.80;;;4.10;;
79220;SDS011;72175;52.118;5.406;2023-09-12T11:01:30;10.68;;;5.03;;
79220;SDS011;72175;52.118;5.406;2023-09-12T11:03:58;10.18;;;3.38;;
79220;SDS011;72175;52.118;5.406;2023-09-12T11:06:31;12.38;;;3.90;;
79220;SDS011;72175;52.118;5.406;2023-09-12T11:09:31;12.38;;;4.57;;
79220;SDS011;72175;52.118;5.406;2023-09-12T11:12:03;10.93;;;3.33;;
79220;SDS011;72175;52.118;5.406;2023-09-12T11:14:31;8.00;;;3.10;;
79220;SDS011;72175;52.118;5.406;2023-09-12T11:22:21;8.30;;;3.75;;
79220;SDS011;72175;52.118;5.406;2023-09-12T11:24:48;10.93;;;3.60;;
79220;SDS011;72175;52.118;5.406;2023-09-12T11:27:15;12.48;;;3.63;;
79220;SDS011;72175;52.118;5.406;2023-09-12T11:29:44;9.93;;;4.32;;
79220;SDS011;72175;52.118;5.406;2023-09-12T11:32:13;12.63;;;3.95;;
79220;SDS011;72175;52.118;5.406;2023-09-12T11:34:58;11.48;;;4.13;;
79220;SDS011;72175;52.118;5.406;2023-09-12T11:37:30;9.18;;;5.10;;
79220;SDS011;72175;52.118;5.406;2023-09-12T11:40:00;11.15;;;4.10;;
79220;SDS011;72175;52.118;5.406;2023-09-12T11:42:27;9.75;;;3.45;;
79220;SDS011;72175;52.118;5.406;2023-09-12T11:44:54;9.63;;;4.00;;
79220;SDS011;72175;52.118;5.406;2023-09-12T11:47:22;14.43;;;4.93;;
79220;SDS011;72175;52.118;5.406;2023-09-12T11:49:49;20.92;;;4.78;;
79220;SDS011;72175;52.118;5.406;2023-09-12T11:52:16;18.90;;;5.53;;
79220;SDS011;72175;52.118;5.406;2023-09-12T11:54:43;14.23;;;4.65;;
79220;SDS011;72175;52.118;5.406;2023-09-12T11:57:14;17.35;;;4.70;;
79220;SDS011;72175;52.118;5.406;2023-09-12T11:59:41;13.55;;;4.53;;
79220;SDS011;72175;52.118;5.406;2023-09-12T12:02:11;11.55;;;4.75;;
79220;SDS011;72175;52.118;5.406;2023-09-12T12:04:38;11.98;;;4.22;;
79220;SDS011;72175;52.118;5.406;2023-09-12T12:07:05;12.40;;;3.83;;
79220;SDS011;72175;52.118;5.406;2023-09-12T12:09:33;10.05;;;4.85;;
79220;SDS011;72175;52.118;5.406;2023-09-12T12:12:19;9.55;;;4.10;;
79220;SDS011;72175;52.118;5.406;2023-09-12T12:14:46;11.52;;;3.28;;
79220;SDS011;72175;52.118;5.406;2023-09-12T12:17:13;11.65;;;4.80;;
79220;SDS011;72175;52.118;5.406;2023-09-12T12:19:44;11.02;;;3.40;;
79220;SDS011;72175;52.118;5.406;2023-09-12T12:22:11;8.57;;;3.60;;
79220;SDS011;72175;52.118;5.406;2023-09-12T12:24:39;11.75;;;4.35;;
79220;SDS011;72175;52.118;5.406;2023-09-12T12:27:11;6.65;;;3.13;;
79220;SDS011;72175;52.118;5.406;2023-09-12T12:29:40;6.82;;;3.45;;
79220;SDS011;72175;52.118;5.406;2023-09-12T12:32:10;6.90;;;3.05;;
79220;SDS011;72175;52.118;5.406;2023-09-12T12:34:36;8.63;;;3.42;;
79220;SDS011;72175;52.118;5.406;2023-09-12T12:37:27;7.05;;;3.88;;
79220;SDS011;72175;52.118;5.406;2023-09-12T12:40:00;6.97;;;3.33;;
79220;SDS011;72175;52.118;5.406;2023-09-12T12:42:32;12.07;;;3.28;;
79220;SDS011;72175;52.118;5.406;2023-09-12T12:45:15;7.70;;;3.72;;
79220;SDS011;72175;52.118;5.406;2023-09-12T12:47:43;9.27;;;3.63;;
79220;SDS011;72175;52.118;5.406;2023-09-12T12:50:12;7.53;;;3.50;;
79220;SDS011;72175;52.118;5.406;2023-09-12T12:52:46;7.72;;;3.58;;
79220;SDS011;72175;52.118;5.406;2023-09-12T12:55:13;9.20;;;3.25;;
79220;SDS011;72175;52.118;5.406;2023-09-12T12:57:44;6.75;;;3.35;;
79220;SDS011;72175;52.118;5.406;2023-09-12T13:00:12;12.10;;;3.83;;
79220;SDS011;72175;52.118;5.406;2023-09-12T13:02:40;9.48;;;4.07;;
79220;SDS011;72175;52.118;5.406;2023-09-12T13:05:27;7.00;;;2.97;;
79220;SDS011;72175;52.118;5.406;2023-09-12T13:07:55;9.27;;;3.72;;
79220;SDS011;72175;52.118;5.406;2023-09-12T13:10:22;11.35;;;3.42;;
79220;SDS011;72175;52.118;5.406;2023-09-12T13:12:49;8.90;;;3.45;;
79220;SDS011;72175;52.118;5.406;2023-09-12T13:15:17;10.05;;;3.20;;
79220;SDS011;72175;52.118;5.406;2023-09-12T13:17:45;8.77;;;3.75;;
79220;SDS011;72175;52.118;5.406;2023-09-12T13:20:12;11.07;;;3.60;;
79220;SDS011;72175;52.118;5.406;2023-09-12T13:22:38;10.65;;;4.18;;
79220;SDS011;72175;52.118;5.406;2023-09-12T13:25:05;8.05;;;3.30;;
79220;SDS011;72175;52.118;5.406;2023-09-12T13:27:32;8.32;;;3.95;;
79220;SDS011;72175;52.118;5.406;2023-09-12T13:29:59;10.98;;;4.00;;
79220;SDS011;72175;52.118;5.406;2023-09-12T13:32:26;8.45;;;3.13;;
79220;SDS011;72175;52.118;5.406;2023-09-12T13:34:54;8.10;;;2.90;;
79220;SDS011;72175;52.118;5.406;2023-09-12T13:37:21;11.23;;;3.50;;
79220;SDS011;72175;52.118;5.406;2023-09-12T13:39:47;8.20;;;3.40;;
79220;SDS011;72175;52.118;5.406;2023-09-12T13:42:17;8.02;;;3.78;;
79220;SDS011;72175;52.118;5.406;2023-09-12T13:44:47;8.18;;;3.50;;
79220;SDS011;72175;52.118;5.406;2023-09-12T13:47:14;10.35;;;3.63;;
79220;SDS011;72175;52.118;5.406;2023-09-12T13:49:48;7.90;;;3.58;;
79220;SDS011;72175;52.118;5.406;2023-09-12T13:52:19;9.75;;;3.50;;
79220;SDS011;72175;52.118;5.406;2023-09-12T13:54:49;9.18;;;3.67;;
79220;SDS011;72175;52.118;5.406;2023-09-12T13:57:16;6.82;;;3.40;;
79220;SDS011;72175;52.118;5.406;2023-09-12T13:59:43;8.32;;;3.30;;
79220;SDS011;72175;52.118;5.406;2023-09-12T14:02:12;7.32;;;3.15;;
79220;SDS011;72175;52.118;5.406;2023-09-12T14:04:39;8.05;;;4.13;;
79220;SDS011;72175;52.118;5.406;2023-09-12T14:07:08;8.25;;;3.35;;
79220;SDS011;72175;52.118;5.406;2023-09-12T14:09:35;9.95;;;3.13;;
79220;SDS011;72175;52.118;5.406;2023-09-12T14:12:02;7.90;;;4.03;;
79220;SDS011;72175;52.118;5.406;2023-09-12T14:14:32;8.38;;;3.08;;
79220;SDS011;72175;52.118;5.406;2023-09-12T14:17:00;8.93;;;3.20;;
79220;SDS011;72175;52.118;5.406;2023-09-12T14:19:28;6.97;;;3.05;;
79220;SDS011;72175;52.118;5.406;2023-09-12T14:21:56;7.18;;;3.17;;
79220;SDS011;72175;52.118;5.406;2023-09-12T14:24:23;5.93;;;2.92;;
79220;SDS011;72175;52.118;5.406;2023-09-12T14:26:51;7.25;;;3.13;;
79220;SDS011;72175;52.118;5.406;2023-09-12T14:29:18;6.20;;;2.80;;
79220;SDS011;72175;52.118;5.406;2023-09-12T14:31:46;7.95;;;3.22;;
79220;SDS011;72175;52.118;5.406;2023-09-12T14:34:18;6.88;;;2.95;;
79220;SDS011;72175;52.118;5.406;2023-09-12T14:36:45;7.30;;;2.80;;
79220;SDS011;72175;52.118;5.406;2023-09-12T14:39:14;6.60;;;3.88;;
79220;SDS011;72175;52.118;5.406;2023-09-12T14:41:41;8.23;;;3.30;;
79220;SDS011;72175;52.118;5.406;2023-09-12T14:44:07;7.47;;;3.00;;
79220;SDS011;72175;52.118;5.406;2023-09-12T14:46:34;7.00;;;2.90;;
79220;SDS011;72175;52.118;5.406;2023-09-12T14:49:01;8.32;;;3.00;;
79220;SDS011;72175;52.118;5.406;2023-09-12T14:51:28;7.03;;;3.58;;
79220;SDS011;72175;52.118;5.406;2023-09-12T14:53:59;8.35;;;2.78;;
79220;SDS011;72175;52.118;5.406;2023-09-12T14:56:25;7.30;;;3.05;;
79220;SDS011;72175;52.118;5.406;2023-09-12T14:58:52;8.43;;;3.15;;
79220;SDS011;72175;52.118;5.406;2023-09-12T15:01:19;7.40;;;2.70;;
79220;SDS011;72175;52.118;5.406;2023-09-12T15:03:45;6.75;;;2.47;;
79220;SDS011;72175;52.118;5.406;2023-09-12T15:06:13;8.13;;;3.13;;
79220;SDS011;72175;52.118;5.406;2023-09-12T15:08:39;6.80;;;2.70;;
79220;SDS011;72175;52.118;5.406;2023-09-12T15:11:07;7.43;;;3.28;;